sensor_id;sensor_type;location;lat;lon;timestamp;pressure;altitude;pressure_sealevel;temperature;humidity
44138;BME280;29800;55.942;37.314;2023-05-03T00:02:13;99609.34;;;8.89;44.83
44138;BME280;29800;55.942;37.314;2023-05-03T00:04:41;99607.09;;;8.86;45.36
44138;BME280;29800;55.942;37.314;2023-05-03T00:07:11;99609.25;;;8.84;45.39
44138;BME280;29800;55.942;37.314;2023-05-03T00:09:37;99619.31;;;8.83;45.01
44138;BME280;29800;55.942;37.314;2023-05-03T00:12:04;99605.44;;;8.85;45.01
44138;BME280;29800;55.942;37.314;2023-05-03T00:14:31;99606.88;;;8.88;45.48
44138;BME280;29800;55.942;37.314;2023-05-03T00:16:57;99605.81;;;8.89;45.68
44138;BME280;29800;55.942;37.314;2023-05-03T00:19:23;99604.38;;;8.86;45.36
44138;BME280;29800;55.942;37.314;2023-05-03T00:21:54;99603.31;;;8.87;45.41
44138;BME280;29800;55.942;37.314;2023-05-03T00:24:21;99601.66;;;8.86;45.12
44138;BME280;29800;55.942;37.314;2023-05-03T00:26:47;99605.53;;;8.90;45.42
44138;BME280;29800;55.942;37.314;2023-05-03T00:29:14;99601.75;;;8.91;45.63
44138;BME280;29800;55.942;37.314;2023-05-03T00:31:43;99600.69;;;8.92;45.16
44138;BME280;29800;55.942;37.314;2023-05-03T00:34:09;99588.34;;;8.90;44.73
44138;BME280;29800;55.942;37.314;2023-05-03T00:36:35;99582.88;;;8.90;45.58
44138;BME280;29800;55.942;37.314;2023-05-03T00:39:01;99576.03;;;8.87;45.26
44138;BME280;29800;55.942;37.314;2023-05-03T00:41:28;99569.38;;;8.83;45.18
44138;BME280;29800;55.942;37.314;2023-05-03T00:43:54;99571.03;;;8.84;45.18
44138;BME280;29800;55.942;37.314;2023-05-03T00:46:21;99567.94;;;8.80;45.04
44138;BME280;29800;55.942;37.314;2023-05-03T00:48:47;99556.22;;;8.80;45.52
44138;BME280;29800;55.942;37.314;2023-05-03T00:51:15;99563.00;;;8.77;45.52
44138;BME280;29800;55.942;37.314;2023-05-03T00:53:42;99547.78;;;8.81;45.93
44138;BME280;29800;55.942;37.314;2023-05-03T00:56:09;99548.84;;;8.80;45.55
44138;BME280;29800;55.942;37.314;2023-05-03T00:58:36;99542.56;;;8.80;45.63
44138;BME280;29800;55.942;37.314;2023-05-03T01:01:05;99556.78;;;8.82;45.71
44138;BME280;29800;55.942;37.314;2023-05-03T01:03:36;99548.13;;;8.85;45.47
44138;BME280;29800;55.942;37.314;2023-05-03T01:09:02;99561.84;;;8.90;46.09
44138;BME280;29800;55.942;37.314;2023-05-03T01:12:17;99552.59;;;8.91;45.24
44138;BME280;29800;55.942;37.314;2023-05-03T01:17:11;99543.94;;;8.94;45.56
44138;BME280;29800;55.942;37.314;2023-05-03T01:19:43;99538.81;;;8.98;45.73
44138;BME280;29800;55.942;37.314;2023-05-03T01:22:16;99535.75;;;8.94;45.79
44138;BME280;29800;55.942;37.314;2023-05-03T01:24:46;99541.78;;;8.96;45.98
44138;BME280;29800;55.942;37.314;2023-05-03T01:27:16;99536.31;;;8.96;45.62
44138;BME280;29800;55.942;37.314;2023-05-03T01:29:42;99533.09;;;8.99;45.76
44138;BME280;29800;55.942;37.314;2023-05-03T01:32:14;99530.13;;;9.01;46.06
44138;BME280;29800;55.942;37.314;2023-05-03T01:37:16;99515.91;;;8.99;45.87
44138;BME280;29800;55.942;37.314;2023-05-03T01:39:50;99516.72;;;8.99;45.44
44138;BME280;29800;55.942;37.314;2023-05-03T01:42:19;99521.63;;;8.97;46.24
44138;BME280;29800;55.942;37.314;2023-05-03T01:44:47;99518.88;;;8.97;46.15
44138;BME280;29800;55.942;37.314;2023-05-03T01:47:14;99516.16;;;8.97;46.27
44138;BME280;29800;55.942;37.314;2023-05-03T01:49:41;99524.91;;;8.99;45.87
44138;BME280;29800;55.942;37.314;2023-05-03T01:52:07;99519.94;;;8.96;45.80
44138;BME280;29800;55.942;37.314;2023-05-03T01:54:33;99517.69;;;8.93;46.33
44138;BME280;29800;55.942;37.314;2023-05-03T01:57:00;99518.78;;;8.92;45.54
44138;BME280;29800;55.942;37.314;2023-05-03T01:59:28;99515.22;;;8.92;46.08
44138;BME280;29800;55.942;37.314;2023-05-03T02:01:54;99516.06;;;8.92;46.47
44138;BME280;29800;55.942;37.314;2023-05-03T02:04:20;99518.47;;;8.89;45.85
44138;BME280;29800;55.942;37.314;2023-05-03T02:06:47;99514.41;;;8.91;46.08
44138;BME280;29800;55.942;37.314;2023-05-03T02:09:13;99520.09;;;8.90;46.46
44138;BME280;29800;55.942;37.314;2023-05-03T02:11:39;99512.84;;;8.95;46.04
44138;BME280;29800;55.942;37.314;2023-05-03T02:14:07;99512.00;;;8.95;46.07
44138;BME280;29800;55.942;37.314;2023-05-03T02:16:36;99508.69;;;8.93;45.89
44138;BME280;29800;55.942;37.314;2023-05-03T02:19:02;99504.06;;;8.93;45.86
44138;BME280;29800;55.942;37.314;2023-05-03T02:21:28;99507.88;;;8.92;45.57
44138;BME280;29800;55.942;37.314;2023-05-03T02:23:54;99500.09;;;9.01;45.87
44138;BME280;29800;55.942;37.314;2023-05-03T02:26:22;99499.47;;;9.11;46.36
44138;BME280;29800;55.942;37.314;2023-05-03T02:28:48;99496.81;;;9.16;45.47
44138;BME280;29800;55.942;37.314;2023-05-03T02:31:14;99500.59;;;9.15;45.44
44138;BME280;29800;55.942;37.314;2023-05-03T02:33:42;99500.53;;;9.10;45.69
44138;BME280;29800;55.942;37.314;2023-05-03T02:36:08;99497.78;;;9.10;45.79
44138;BME280;29800;55.942;37.314;2023-05-03T02:38:35;99492.34;;;9.10;45.78
44138;BME280;29800;55.942;37.314;2023-05-03T02:41:01;99497.78;;;9.10;46.27
44138;BME280;29800;55.942;37.314;2023-05-03T02:43:29;99502.75;;;9.13;45.52
44138;BME280;29800;55.942;37.314;2023-05-03T02:45:57;99495.06;;;9.10;46.68
44138;BME280;29800;55.942;37.314;2023-05-03T02:48:24;99487.97;;;9.09;45.61
44138;BME280;29800;55.942;37.314;2023-05-03T02:50:51;99489.19;;;9.18;46.63
44138;BME280;29800;55.942;37.314;2023-05-03T02:53:17;99497.63;;;9.16;45.94
44138;BME280;29800;55.942;37.314;2023-05-03T02:55:44;99501.78;;;9.19;46.13
44138;BME280;29800;55.942;37.314;2023-05-03T02:58:11;99498.56;;;9.22;45.54
44138;BME280;29800;55.942;37.314;2023-05-03T03:00:38;99507.66;;;9.28;45.90
44138;BME280;29800;55.942;37.314;2023-05-03T03:03:04;99507.41;;;9.29;45.94
44138;BME280;29800;55.942;37.314;2023-05-03T03:05:31;99516.22;;;9.31;45.92
44138;BME280;29800;55.942;37.314;2023-05-03T03:07:57;99512.06;;;9.29;46.12
44138;BME280;29800;55.942;37.314;2023-05-03T03:10:24;99517.84;;;9.32;45.84
44138;BME280;29800;55.942;37.314;2023-05-03T03:12:51;99520.34;;;9.34;46.64
44138;BME280;29800;55.942;37.314;2023-05-03T03:15:27;99519.59;;;9.38;45.97
44138;BME280;29800;55.942;37.314;2023-05-03T03:17:53;99525.06;;;9.38;45.30
44138;BME280;29800;55.942;37.314;2023-05-03T03:20:22;99519.94;;;9.42;45.90
44138;BME280;29800;55.942;37.314;2023-05-03T03:22:49;99509.06;;;9.47;45.88
44138;BME280;29800;55.942;37.314;2023-05-03T03:25:16;99516.78;;;9.50;45.98
44138;BME280;29800;55.942;37.314;2023-05-03T03:27:42;99522.31;;;9.55;46.58
44138;BME280;29800;55.942;37.314;2023-05-03T03:30:09;99519.91;;;9.59;46.06
44138;BME280;29800;55.942;37.314;2023-05-03T03:32:46;99519.34;;;9.57;46.16
44138;BME280;29800;55.942;37.314;2023-05-03T03:35:20;99530.28;;;9.57;47.07
44138;BME280;29800;55.942;37.314;2023-05-03T03:37:50;99529.13;;;9.53;47.23
44138;BME280;29800;55.942;37.314;2023-05-03T03:40:17;99531.25;;;9.51;47.62
44138;BME280;29800;55.942;37.314;2023-05-03T03:42:46;99540.78;;;9.48;49.34
44138;BME280;29800;55.942;37.314;2023-05-03T03:45:13;99539.88;;;9.43;50.29
44138;BME280;29800;55.942;37.314;2023-05-03T03:47:39;99536.22;;;9.37;49.46
44138;BME280;29800;55.942;37.314;2023-05-03T03:50:05;99532.59;;;9.31;49.96
44138;BME280;29800;55.942;37.314;2023-05-03T03:52:33;99540.78;;;9.31;51.13
44138;BME280;29800;55.942;37.314;2023-05-03T03:55:00;99541.84;;;9.30;51.38
44138;BME280;29800;55.942;37.314;2023-05-03T03:57:31;99551.97;;;9.30;51.88
44138;BME280;29800;55.942;37.314;2023-05-03T03:59:58;99542.91;;;9.29;52.69
44138;BME280;29800;55.942;37.314;2023-05-03T04:02:26;99545.66;;;9.29;52.97
44138;BME280;29800;55.942;37.314;2023-05-03T04:04:53;99546.81;;;9.33;52.73
44138;BME280;29800;55.942;37.314;2023-05-03T04:07:19;99549.00;;;9.31;53.46
44138;BME280;29800;55.942;37.314;2023-05-03T04:09:47;99560.41;;;9.28;53.59
44138;BME280;29800;55.942;37.314;2023-05-03T04:12:14;99559.22;;;9.24;55.29
44138;BME280;29800;55.942;37.314;2023-05-03T04:14:42;99557.59;;;9.23;54.69
44138;BME280;29800;55.942;37.314;2023-05-03T04:17:09;99553.44;;;9.20;54.67
44138;BME280;29800;55.942;37.314;2023-05-03T04:19:35;99557.06;;;9.26;53.67
44138;BME280;29800;55.942;37.314;2023-05-03T04:22:04;99555.50;;;9.30;54.12
44138;BME280;29800;55.942;37.314;2023-05-03T04:24:30;99547.31;;;9.30;53.91
44138;BME280;29800;55.942;37.314;2023-05-03T04:26:57;99556.56;;;9.29;54.93
44138;BME280;29800;55.942;37.314;2023-05-03T04:29:29;99559.31;;;9.29;55.30
44138;BME280;29800;55.942;37.314;2023-05-03T04:31:56;99550.44;;;9.22;56.40
44138;BME280;29800;55.942;37.314;2023-05-03T04:34:22;99577.06;;;9.15;56.59
44138;BME280;29800;55.942;37.314;2023-05-03T04:36:52;99564.91;;;9.06;57.47
44138;BME280;29800;55.942;37.314;2023-05-03T04:39:19;99569.41;;;9.00;57.52
44138;BME280;29800;55.942;37.314;2023-05-03T04:41:47;99581.66;;;8.97;58.44
44138;BME280;29800;55.942;37.314;2023-05-03T04:44:15;99572.00;;;9.07;58.61
44138;BME280;29800;55.942;37.314;2023-05-03T04:46:43;99576.38;;;9.36;58.54
44138;BME280;29800;55.942;37.314;2023-05-03T04:49:09;99573.41;;;9.55;58.26
44138;BME280;29800;55.942;37.314;2023-05-03T04:51:36;99579.03;;;9.65;57.98
44138;BME280;29800;55.942;37.314;2023-05-03T04:54:02;99571.13;;;9.81;58.37
44138;BME280;29800;55.942;37.314;2023-05-03T04:56:29;99572.41;;;9.95;57.71
44138;BME280;29800;55.942;37.314;2023-05-03T04:59:06;99563.88;;;10.08;57.64
44138;BME280;29800;55.942;37.314;2023-05-03T05:01:33;99554.88;;;10.30;57.47
44138;BME280;29800;55.942;37.314;2023-05-03T05:04:02;99563.69;;;10.54;56.52
44138;BME280;29800;55.942;37.314;2023-05-03T05:06:35;99554.66;;;10.54;57.97
44138;BME280;29800;55.942;37.314;2023-05-03T05:09:02;99556.69;;;10.63;56.50
44138;BME280;29800;55.942;37.314;2023-05-03T05:11:30;99562.09;;;10.58;56.76
44138;BME280;29800;55.942;37.314;2023-05-03T05:13:57;99556.75;;;10.91;55.95
44138;BME280;29800;55.942;37.314;2023-05-03T05:16:23;99566.28;;;10.88;56.90
44138;BME280;29800;55.942;37.314;2023-05-03T05:18:52;99562.22;;;10.91;56.34
44138;BME280;29800;55.942;37.314;2023-05-03T05:21:23;99566.59;;;10.92;56.25
44138;BME280;29800;55.942;37.314;2023-05-03T05:23:49;99564.97;;;10.91;56.42
44138;BME280;29800;55.942;37.314;2023-05-03T05:26:15;99563.41;;;11.00;57.03
44138;BME280;29800;55.942;37.314;2023-05-03T05:28:42;99568.38;;;11.03;55.82
44138;BME280;29800;55.942;37.314;2023-05-03T05:31:08;99572.25;;;11.07;55.66
44138;BME280;29800;55.942;37.314;2023-05-03T05:33:35;99568.94;;;11.05;55.67
44138;BME280;29800;55.942;37.314;2023-05-03T05:36:03;99566.16;;;11.00;55.46
44138;BME280;29800;55.942;37.314;2023-05-03T05:38:31;99564.06;;;11.07;55.07
44138;BME280;29800;55.942;37.314;2023-05-03T05:40:59;99578.91;;;11.16;54.31
44138;BME280;29800;55.942;37.314;2023-05-03T05:43:25;99569.50;;;11.34;54.48
44138;BME280;29800;55.942;37.314;2023-05-03T05:45:51;99573.06;;;11.30;53.40
44138;BME280;29800;55.942;37.314;2023-05-03T05:48:19;99570.81;;;11.27;54.89
44138;BME280;29800;55.942;37.314;2023-05-03T05:50:46;99559.41;;;11.35;55.24
44138;BME280;29800;55.942;37.314;2023-05-03T05:53:13;99566.28;;;11.43;53.79
44138;BME280;29800;55.942;37.314;2023-05-03T05:55:46;99577.31;;;11.48;53.81
44138;BME280;29800;55.942;37.314;2023-05-03T05:58:13;99576.00;;;11.55;53.87
44138;BME280;29800;55.942;37.314;2023-05-03T06:00:45;99579.31;;;11.57;54.22
44138;BME280;29800;55.942;37.314;2023-05-03T06:03:14;99569.50;;;11.62;53.69
44138;BME280;29800;55.942;37.314;2023-05-03T06:05:41;99569.50;;;11.62;53.17
44138;BME280;29800;55.942;37.314;2023-05-03T06:08:09;99579.94;;;11.65;52.82
44138;BME280;29800;55.942;37.314;2023-05-03T06:10:35;99576.50;;;11.80;53.49
44138;BME280;29800;55.942;37.314;2023-05-03T06:13:03;99582.78;;;11.80;52.39
44138;BME280;29800;55.942;37.314;2023-05-03T06:15:29;99582.28;;;11.83;53.15
44138;BME280;29800;55.942;37.314;2023-05-03T06:17:56;99580.78;;;11.98;52.85
44138;BME280;29800;55.942;37.314;2023-05-03T06:20:23;99585.19;;;11.99;52.72
44138;BME280;29800;55.942;37.314;2023-05-03T06:22:50;99582.25;;;12.10;52.18
44138;BME280;29800;55.942;37.314;2023-05-03T06:25:17;99582.84;;;12.23;53.33
44138;BME280;29800;55.942;37.314;2023-05-03T06:27:48;99580.91;;;12.66;51.67
44138;BME280;29800;55.942;37.314;2023-05-03T06:30:17;99579.00;;;12.72;50.96
44138;BME280;29800;55.942;37.314;2023-05-03T06:32:46;99582.28;;;12.74;50.28
44138;BME280;29800;55.942;37.314;2023-05-03T06:35:12;99587.78;;;12.74;51.02
44138;BME280;29800;55.942;37.314;2023-05-03T06:37:39;99597.75;;;12.95;51.22
44138;BME280;29800;55.942;37.314;2023-05-03T06:40:08;99600.28;;;13.07;50.14
44138;BME280;29800;55.942;37.314;2023-05-03T06:42:37;99597.28;;;13.14;49.70
44138;BME280;29800;55.942;37.314;2023-05-03T06:45:11;99596.22;;;13.20;49.55
44138;BME280;29800;55.942;37.314;2023-05-03T06:47:38;99598.22;;;13.45;49.76
44138;BME280;29800;55.942;37.314;2023-05-03T06:50:07;99590.22;;;13.44;48.82
44138;BME280;29800;55.942;37.314;2023-05-03T06:52:34;99604.50;;;13.40;48.47
44138;BME280;29800;55.942;37.314;2023-05-03T06:55:00;99605.88;;;13.38;48.66
44138;BME280;29800;55.942;37.314;2023-05-03T06:57:26;99611.41;;;13.48;48.69
44138;BME280;29800;55.942;37.314;2023-05-03T06:59:52;99597.66;;;13.43;48.69
44138;BME280;29800;55.942;37.314;2023-05-03T07:02:18;99595.19;;;13.47;49.85
44138;BME280;29800;55.942;37.314;2023-05-03T07:04:46;99600.69;;;13.52;48.34
44138;BME280;29800;55.942;37.314;2023-05-03T07:07:12;99599.03;;;13.56;48.22
44138;BME280;29800;55.942;37.314;2023-05-03T07:09:38;99599.59;;;13.58;48.74
44138;BME280;29800;55.942;37.314;2023-05-03T07:12:04;99608.94;;;13.57;48.32
44138;BME280;29800;55.942;37.314;2023-05-03T07:14:30;99605.66;;;13.65;48.44
44138;BME280;29800;55.942;37.314;2023-05-03T07:16:57;99610.06;;;13.82;48.43
44138;BME280;29800;55.942;37.314;2023-05-03T07:19:23;99606.75;;;13.95;47.49
44138;BME280;29800;55.942;37.314;2023-05-03T07:21:50;99613.34;;;14.14;47.39
44138;BME280;29800;55.942;37.314;2023-05-03T07:24:16;99606.75;;;14.21;47.17
44138;BME280;29800;55.942;37.314;2023-05-03T07:26:43;99617.19;;;14.24;47.30
44138;BME280;29800;55.942;37.314;2023-05-03T07:29:10;99612.78;;;14.28;47.86
44138;BME280;29800;55.942;37.314;2023-05-03T07:31:37;99616.09;;;14.30;47.37
44138;BME280;29800;55.942;37.314;2023-05-03T07:34:03;99613.88;;;14.32;47.66
44138;BME280;29800;55.942;37.314;2023-05-03T07:36:30;99618.28;;;14.28;47.55
44138;BME280;29800;55.942;37.314;2023-05-03T07:38:56;99611.69;;;14.24;47.03
44138;BME280;29800;55.942;37.314;2023-05-03T07:41:23;99619.13;;;14.28;47.67
44138;BME280;29800;55.942;37.314;2023-05-03T07:43:49;99620.19;;;14.32;48.24
44138;BME280;29800;55.942;37.314;2023-05-03T07:46:15;99623.22;;;14.31;46.83
44138;BME280;29800;55.942;37.314;2023-05-03T07:48:42;99613.88;;;14.32;47.23
44138;BME280;29800;55.942;37.314;2023-05-03T07:51:08;99619.91;;;14.39;46.52
44138;BME280;29800;55.942;37.314;2023-05-03T07:53:34;99623.22;;;14.31;46.21
44138;BME280;29800;55.942;37.314;2023-05-03T07:56:00;99627.91;;;14.30;46.75
44138;BME280;29800;55.942;37.314;2023-05-03T07:58:27;99636.19;;;14.25;46.76
44138;BME280;29800;55.942;37.314;2023-05-03T08:00:53;99637.00;;;14.26;46.51
44138;BME280;29800;55.942;37.314;2023-05-03T08:03:20;99637.28;;;14.19;47.32
44138;BME280;29800;55.942;37.314;2023-05-03T08:05:46;99648.84;;;14.16;46.85
44138;BME280;29800;55.942;37.314;2023-05-03T08:08:13;99651.34;;;14.07;47.40
44138;BME280;29800;55.942;37.314;2023-05-03T08:10:40;99654.63;;;13.99;46.89
44138;BME280;29800;55.942;37.314;2023-05-03T08:13:06;99651.63;;;13.95;47.32
44138;BME280;29800;55.942;37.314;2023-05-03T08:15:33;99651.88;;;14.04;47.30
44138;BME280;29800;55.942;37.314;2023-05-03T08:17:59;99652.97;;;14.03;47.68
44138;BME280;29800;55.942;37.314;2023-05-03T08:20:25;99651.88;;;14.04;47.79
44138;BME280;29800;55.942;37.314;2023-05-03T08:22:52;99650.22;;;13.93;47.96
44138;BME280;29800;55.942;37.314;2023-05-03T08:25:22;99652.69;;;13.94;48.08
44138;BME280;29800;55.942;37.314;2023-05-03T08:27:51;99656.28;;;14.00;48.42
44138;BME280;29800;55.942;37.314;2023-05-03T08:30:19;99646.38;;;14.04;48.51
44138;BME280;29800;55.942;37.314;2023-05-03T08:32:46;99645.84;;;13.97;47.57
44138;BME280;29800;55.942;37.314;2023-05-03T08:35:13;99644.19;;;14.01;48.86
44138;BME280;29800;55.942;37.314;2023-05-03T08:37:41;99646.94;;;14.01;48.81
44138;BME280;29800;55.942;37.314;2023-05-03T08:40:09;99648.03;;;14.10;47.88
44138;BME280;29800;55.942;37.314;2023-05-03T08:42:43;99645.56;;;14.14;47.85
44138;BME280;29800;55.942;37.314;2023-05-03T08:45:14;99639.78;;;14.21;48.72
44138;BME280;29800;55.942;37.314;2023-05-03T08:47:42;99637.53;;;14.33;49.07
44138;BME280;29800;55.942;37.314;2023-05-03T08:50:14;99639.72;;;14.51;48.66
44138;BME280;29800;55.942;37.314;2023-05-03T08:52:41;99638.03;;;14.76;47.46
44138;BME280;29800;55.942;37.314;2023-05-03T08:55:09;99636.84;;;14.98;48.55
44138;BME280;29800;55.942;37.314;2023-05-03T08:57:36;99637.59;;;15.19;47.47
44138;BME280;29800;55.942;37.314;2023-05-03T09:00:03;99634.00;;;15.23;46.55
44138;BME280;29800;55.942;37.314;2023-05-03T09:02:38;99643.00;;;15.34;46.28
44138;BME280;29800;55.942;37.314;2023-05-03T09:05:31;99638.59;;;15.38;45.99
44138;BME280;29800;55.942;37.314;2023-05-03T09:08:00;99646.16;;;15.17;45.97
44138;BME280;29800;55.942;37.314;2023-05-03T09:10:29;99639.59;;;14.98;46.29
44138;BME280;29800;55.942;37.314;2023-05-03T09:13:00;99642.94;;;14.89;46.73
44138;BME280;29800;55.942;37.314;2023-05-03T09:15:30;99656.78;;;14.79;47.28
44138;BME280;29800;55.942;37.314;2023-05-03T09:18:16;99660.88;;;14.82;46.80
44138;BME280;29800;55.942;37.314;2023-05-03T09:20:44;99667.25;;;14.72;47.04
44138;BME280;29800;55.942;37.314;2023-05-03T09:23:46;99655.97;;;14.68;46.33
44138;BME280;29800;55.942;37.314;2023-05-03T09:26:26;99660.09;;;14.61;46.81
44138;BME280;29800;55.942;37.314;2023-05-03T09:28:53;99667.28;;;14.62;47.86
44138;BME280;29800;55.942;37.314;2023-05-03T09:31:19;99669.19;;;14.56;48.47
44138;BME280;29800;55.942;37.314;2023-05-03T09:33:45;99671.66;;;14.52;48.70
44138;BME280;29800;55.942;37.314;2023-05-03T09:36:13;99673.03;;;14.50;48.64
44138;BME280;29800;55.942;37.314;2023-05-03T09:38:39;99681.31;;;14.50;48.98
44138;BME280;29800;55.942;37.314;2023-05-03T09:41:07;99666.16;;;14.47;49.44
44138;BME280;29800;55.942;37.314;2023-05-03T09:43:34;99681.56;;;14.53;50.81
44138;BME280;29800;55.942;37.314;2023-05-03T09:46:12;99678.81;;;14.59;50.48
44138;BME280;29800;55.942;37.314;2023-05-03T09:48:39;99686.53;;;14.57;50.35
44138;BME280;29800;55.942;37.314;2023-05-03T09:51:06;99704.41;;;14.54;49.95
44138;BME280;29800;55.942;37.314;2023-05-03T09:53:34;99702.22;;;14.46;50.35
44138;BME280;29800;55.942;37.314;2023-05-03T09:56:02;99699.47;;;14.41;50.81
44138;BME280;29800;55.942;37.314;2023-05-03T09:58:29;99701.97;;;14.32;51.07
44138;BME280;29800;55.942;37.314;2023-05-03T10:01:00;99708.56;;;14.26;51.08
44138;BME280;29800;55.942;37.314;2023-05-03T10:03:48;99706.91;;;14.25;50.84
44138;BME280;29800;55.942;37.314;2023-05-03T10:06:39;99706.91;;;14.20;51.70
44138;BME280;29800;55.942;37.314;2023-05-03T10:09:25;99711.88;;;14.23;51.25
44138;BME280;29800;55.942;37.314;2023-05-03T10:11:57;99701.41;;;14.25;51.66
44138;BME280;29800;55.942;37.314;2023-05-03T10:14:24;99691.50;;;14.29;51.36
44138;BME280;29800;55.942;37.314;2023-05-03T10:16:58;99704.16;;;14.50;51.38
44138;BME280;29800;55.942;37.314;2023-05-03T10:22:09;99693.97;;;14.72;49.81
44138;BME280;29800;55.942;37.314;2023-05-03T10:27:22;99680.72;;;14.74;50.54
44138;BME280;29800;55.942;37.314;2023-05-03T10:29:51;99691.75;;;14.74;50.39
44138;BME280;29800;55.942;37.314;2023-05-03T10:32:32;99692.59;;;14.74;50.26
44138;BME280;29800;55.942;37.314;2023-05-03T10:35:12;99698.09;;;14.64;50.53
44138;BME280;29800;55.942;37.314;2023-05-03T10:37:40;99713.81;;;14.48;51.76
44138;BME280;29800;55.942;37.314;2023-05-03T10:40:17;99721.78;;;14.44;51.67
44138;BME280;29800;55.942;37.314;2023-05-03T10:42:48;99717.38;;;14.28;52.36
44138;BME280;29800;55.942;37.314;2023-05-03T10:45:26;99726.50;;;14.23;52.25
44138;BME280;29800;55.942;37.314;2023-05-03T10:50:39;99726.19;;;14.04;52.55
44138;BME280;29800;55.942;37.314;2023-05-03T10:53:05;99718.47;;;14.01;53.18
44138;BME280;29800;55.942;37.314;2023-05-03T10:55:32;99714.63;;;14.02;53.02
44138;BME280;29800;55.942;37.314;2023-05-03T10:57:59;99716.53;;;14.07;52.65
44138;BME280;29800;55.942;37.314;2023-05-03T11:05:43;99709.09;;;14.59;52.12
44138;BME280;29800;55.942;37.314;2023-05-03T11:08:15;99709.66;;;14.81;50.90
44138;BME280;29800;55.942;37.314;2023-05-03T11:10:48;99707.13;;;14.90;50.29
44138;BME280;29800;55.942;37.314;2023-05-03T11:13:16;99704.91;;;15.02;50.50
44138;BME280;29800;55.942;37.314;2023-05-03T11:15:42;99702.94;;;15.18;49.88
44138;BME280;29800;55.942;37.314;2023-05-03T11:18:09;99693.22;;;15.31;48.53
44138;BME280;29800;55.942;37.314;2023-05-03T11:20:39;99704.53;;;15.30;48.42
44138;BME280;29800;55.942;37.314;2023-05-03T11:23:05;99698.50;;;15.22;48.36
44138;BME280;29800;55.942;37.314;2023-05-03T11:25:35;99700.19;;;15.13;48.61
44138;BME280;29800;55.942;37.314;2023-05-03T11:28:02;99706.00;;;15.06;48.33
44138;BME280;29800;55.942;37.314;2023-05-03T11:30:33;99712.91;;;14.94;49.17
44138;BME280;29800;55.942;37.314;2023-05-03T11:33:00;99709.09;;;14.84;48.71
44138;BME280;29800;55.942;37.314;2023-05-03T11:35:29;99694.19;;;14.85;48.99
44138;BME280;29800;55.942;37.314;2023-05-03T11:37:56;99708.00;;;14.91;49.24
44138;BME280;29800;55.942;37.314;2023-05-03T11:40:23;99705.72;;;15.03;49.38
44138;BME280;29800;55.942;37.314;2023-05-03T11:45:21;99697.53;;;15.53;48.77
44138;BME280;29800;55.942;37.314;2023-05-03T11:47:48;99703.81;;;15.63;47.77
44138;BME280;29800;55.942;37.314;2023-05-03T11:50:14;99700.56;;;15.56;47.16
44138;BME280;29800;55.942;37.314;2023-05-03T11:52:41;99703.88;;;15.53;48.13
44138;BME280;29800;55.942;37.314;2023-05-03T11:55:07;99702.78;;;15.49;47.83
44138;BME280;29800;55.942;37.314;2023-05-03T11:57:36;99705.00;;;15.47;47.45
44138;BME280;29800;55.942;37.314;2023-05-03T12:00:13;99702.53;;;15.46;49.00
44138;BME280;29800;55.942;37.314;2023-05-03T12:02:47;99698.84;;;15.60;48.50
44138;BME280;29800;55.942;37.314;2023-05-03T12:05:14;99700.16;;;15.73;47.79
44138;BME280;29800;55.942;37.314;2023-05-03T12:07:40;99700.94;;;15.89;46.79
44138;BME280;29800;55.942;37.314;2023-05-03T12:10:16;99698.06;;;16.05;47.43
44138;BME280;29800;55.942;37.314;2023-05-03T12:12:54;99706.56;;;16.13;47.20
44138;BME280;29800;55.942;37.314;2023-05-03T12:15:34;99707.38;;;16.14;46.58
44138;BME280;29800;55.942;37.314;2023-05-03T12:18:07;99701.03;;;16.13;46.46
44138;BME280;29800;55.942;37.314;2023-05-03T12:20:35;99702.09;;;16.17;46.93
44138;BME280;29800;55.942;37.314;2023-05-03T12:23:06;99710.63;;;16.21;46.33
44138;BME280;29800;55.942;37.314;2023-05-03T12:25:36;99700.72;;;16.20;45.98
44138;BME280;29800;55.942;37.314;2023-05-03T12:28:03;99696.91;;;16.11;44.86
44138;BME280;29800;55.942;37.314;2023-05-03T12:30:31;99701.84;;;16.14;44.94
44138;BME280;29800;55.942;37.314;2023-05-03T12:32:58;99693.03;;;16.12;45.21
44138;BME280;29800;55.942;37.314;2023-05-03T12:35:28;99699.91;;;16.14;45.23
44138;BME280;29800;55.942;37.314;2023-05-03T12:37:54;99698.28;;;16.08;45.20
44138;BME280;29800;55.942;37.314;2023-05-03T12:40:20;99701.31;;;16.12;45.59
44138;BME280;29800;55.942;37.314;2023-05-03T12:42:49;99697.94;;;16.20;45.69
44138;BME280;29800;55.942;37.314;2023-05-03T12:45:15;99706.97;;;16.31;45.05
44138;BME280;29800;55.942;37.314;2023-05-03T12:47:42;99694.72;;;16.42;44.15
44138;BME280;29800;55.942;37.314;2023-05-03T12:50:08;99689.38;;;16.51;44.57
44138;BME280;29800;55.942;37.314;2023-05-03T12:52:36;99700.41;;;16.56;44.60
44138;BME280;29800;55.942;37.314;2023-05-03T12:55:04;99692.53;;;16.68;44.00
44138;BME280;29800;55.942;37.314;2023-05-03T12:57:31;99687.19;;;16.77;44.05
44138;BME280;29800;55.942;37.314;2023-05-03T12:59:57;99683.44;;;16.92;43.82
44138;BME280;29800;55.942;37.314;2023-05-03T13:02:24;99698.22;;;17.06;43.00
44138;BME280;29800;55.942;37.314;2023-05-03T13:04:51;99694.47;;;16.97;39.68
44138;BME280;29800;55.942;37.314;2023-05-03T13:07:21;99699.00;;;16.88;39.46
44138;BME280;29800;55.942;37.314;2023-05-03T13:09:50;99704.91;;;16.76;39.07
44138;BME280;29800;55.942;37.314;2023-05-03T13:12:17;99711.63;;;16.65;39.72
44138;BME280;29800;55.942;37.314;2023-05-03T13:14:48;99705.72;;;16.77;39.62
44138;BME280;29800;55.942;37.314;2023-05-03T13:17:16;99697.81;;;16.94;40.25
44138;BME280;29800;55.942;37.314;2023-05-03T13:19:45;99704.81;;;17.11;40.54
44138;BME280;29800;55.942;37.314;2023-05-03T13:22:16;99699.69;;;17.23;41.60
44138;BME280;29800;55.942;37.314;2023-05-03T13:24:44;99703.75;;;17.31;41.38